createdAt,value
2024-02-19T00:01:42.119Z,4.83
2024-02-19T00:04:08.887Z,4.80
2024-02-19T00:06:36.027Z,5.63
2024-02-19T00:09:02.770Z,4.70
2024-02-19T00:11:30.959Z,4.93
2024-02-19T00:13:59.183Z,3.97
2024-02-19T00:16:25.809Z,4.13
2024-02-19T00:18:52.585Z,3.50
2024-02-19T00:21:19.360Z,4.30
2024-02-19T00:23:45.947Z,4.10
2024-02-19T00:26:14.210Z,3.33
2024-02-19T00:28:41.031Z,4.03
2024-02-19T00:31:11.671Z,3.70
2024-02-19T00:33:39.500Z,3.20
2024-02-19T00:36:06.538Z,3.10
2024-02-19T00:38:33.187Z,3.03
2024-02-19T00:40:59.781Z,3.00
2024-02-19T00:43:26.881Z,2.90
2024-02-19T00:45:53.493Z,2.50
2024-02-19T00:48:20.047Z,2.03
2024-02-19T00:50:46.585Z,1.97
2024-02-19T00:53:13.156Z,2.00
2024-02-19T00:55:39.822Z,2.20
2024-02-19T00:58:06.421Z,2.47
2024-02-19T01:00:33.063Z,2.23
2024-02-19T01:02:59.719Z,1.20
2024-02-19T01:05:26.474Z,0.97
2024-02-19T01:07:53.101Z,0.90
2024-02-19T01:10:20.354Z,0.77
2024-02-19T01:12:47.034Z,0.53
2024-02-19T01:15:13.666Z,0.50
2024-02-19T01:17:40.211Z,0.40
2024-02-19T01:20:08.601Z,0.53
2024-02-19T01:22:35.164Z,0.40
2024-02-19T01:25:02.449Z,0.40
2024-02-19T01:27:29.817Z,0.40
2024-02-19T01:29:56.394Z,0.43
2024-02-19T01:32:24.082Z,0.50
2024-02-19T01:34:50.742Z,0.40
2024-02-19T01:37:17.477Z,0.33
2024-02-19T01:39:44.334Z,0.40
2024-02-19T01:42:11.369Z,0.50
2024-02-19T01:44:38.178Z,0.40
2024-02-19T01:47:04.921Z,0.40
2024-02-19T01:49:32.454Z,0.40
2024-02-19T01:52:00.837Z,0.40
2024-02-19T01:54:27.975Z,0.40
2024-02-19T01:56:54.707Z,0.40
2024-02-19T01:59:22.857Z,0.40
2024-02-19T02:01:50.050Z,0.50
2024-02-19T02:04:19.752Z,0.40
2024-02-19T02:06:47.161Z,0.43
2024-02-19T02:09:13.852Z,0.40
2024-02-19T02:11:40.396Z,0.50
2024-02-19T02:14:06.916Z,0.60
2024-02-19T02:16:34.581Z,0.77
2024-02-19T02:19:01.244Z,0.60
2024-02-19T02:21:28.080Z,0.77
2024-02-19T02:23:54.707Z,0.80
2024-02-19T02:26:21.292Z,0.80
2024-02-19T02:28:48.213Z,1.30
2024-02-19T02:31:15.076Z,1.03
2024-02-19T02:33:41.896Z,1.10
2024-02-19T02:36:11.412Z,1.47
2024-02-19T02:38:38.026Z,1.00
2024-02-19T02:41:04.702Z,1.27
2024-02-19T02:43:31.326Z,1.47
2024-02-19T02:45:57.948Z,1.27
2024-02-19T02:48:24.857Z,1.30
2024-02-19T02:50:51.509Z,1.23
2024-02-19T02:53:18.550Z,1.00
2024-02-19T02:55:45.119Z,1.30
2024-02-19T02:58:11.825Z,0.93
2024-02-19T03:00:38.817Z,0.80
2024-02-19T03:03:05.589Z,0.80
2024-02-19T03:05:32.184Z,0.80
2024-02-19T03:07:59.317Z,0.70
2024-02-19T03:10:26.046Z,0.80
2024-02-19T03:12:52.698Z,0.90
2024-02-19T03:15:19.441Z,0.70
2024-02-19T03:17:46.371Z,0.80
2024-02-19T03:20:15.095Z,1.13
2024-02-19T03:22:44.548Z,0.70
2024-02-19T03:25:11.423Z,0.77
2024-02-19T03:27:38.972Z,0.80
2024-02-19T03:30:07.809Z,0.70
2024-02-19T03:32:34.488Z,0.80
2024-02-19T03:35:01.109Z,0.53
2024-02-19T03:37:27.693Z,0.50
2024-02-19T03:39:54.328Z,0.50
2024-02-19T03:42:20.936Z,0.50
2024-02-19T03:44:48.042Z,0.57
2024-02-19T03:47:14.663Z,0.57
2024-02-19T03:49:41.306Z,0.90
2024-02-19T03:52:08.023Z,0.60
2024-02-19T03:54:34.626Z,0.60
2024-02-19T03:57:01.289Z,0.70
2024-02-19T03:59:27.879Z,0.50
2024-02-19T04:01:54.542Z,0.40
2024-02-19T04:04:21.656Z,0.50
2024-02-19T04:06:48.446Z,0.40
2024-02-19T04:09:15.111Z,0.60
2024-02-19T04:11:41.785Z,0.50
2024-02-19T04:14:08.408Z,0.70
2024-02-19T04:16:34.973Z,0.67
2024-02-19T04:19:01.815Z,0.87
2024-02-19T04:21:28.496Z,0.90
2024-02-19T04:23:55.123Z,1.20
2024-02-19T04:26:21.701Z,0.70
2024-02-19T04:28:48.246Z,0.80
2024-02-19T04:31:14.962Z,0.87
2024-02-19T04:33:44.733Z,1.67
2024-02-19T04:36:11.395Z,0.90
2024-02-19T04:38:38.003Z,0.90
2024-02-19T04:41:05.334Z,0.60
2024-02-19T04:43:31.986Z,0.93
2024-02-19T04:45:58.577Z,0.70
2024-02-19T04:48:25.203Z,0.50
2024-02-19T04:50:52.365Z,0.70
2024-02-19T04:53:19.332Z,0.53
2024-02-19T04:55:46.725Z,0.60
2024-02-19T04:58:13.411Z,0.63
2024-02-19T05:00:41.690Z,0.70
2024-02-19T05:03:08.745Z,0.60
2024-02-19T05:05:36.215Z,0.63
2024-02-19T05:08:04.266Z,0.70
2024-02-19T05:10:30.919Z,0.80
2024-02-19T05:12:57.977Z,0.70
2024-02-19T05:15:24.801Z,0.60
2024-02-19T05:17:51.512Z,0.70
2024-02-19T05:20:18.699Z,0.63
2024-02-19T05:22:48.610Z,0.87
2024-02-19T05:25:15.270Z,0.70
2024-02-19T05:27:41.963Z,1.10
2024-02-19T05:30:08.925Z,1.20
2024-02-19T05:32:35.538Z,0.70
2024-02-19T05:35:04.311Z,0.80
2024-02-19T05:37:31.870Z,0.60
2024-02-19T05:39:58.703Z,0.80
2024-02-19T05:42:25.263Z,1.23
2024-02-19T05:44:51.815Z,1.03
2024-02-19T05:47:18.552Z,0.87
2024-02-19T05:49:46.354Z,1.00
2024-02-19T05:52:13.244Z,1.20
2024-02-19T05:54:40.229Z,1.20
2024-02-19T05:57:07.876Z,0.80
2024-02-19T05:59:35.123Z,0.93
2024-02-19T06:02:02.261Z,0.77
2024-02-19T06:04:29.231Z,1.47
2024-02-19T06:06:55.894Z,0.63
2024-02-19T06:09:22.587Z,0.87
2024-02-19T06:11:49.174Z,0.70
2024-02-19T06:14:15.738Z,0.70
2024-02-19T06:16:42.297Z,0.60
2024-02-19T06:19:09.939Z,0.70
2024-02-19T06:21:36.917Z,0.67
2024-02-19T06:24:03.663Z,1.30
2024-02-19T06:26:30.259Z,0.80
2024-02-19T06:28:56.862Z,0.67
2024-02-19T06:31:28.730Z,0.70
2024-02-19T06:33:56.198Z,0.47
2024-02-19T06:36:23.339Z,0.63
2024-02-19T06:38:49.928Z,0.70
2024-02-19T06:41:16.542Z,0.67
2024-02-19T06:43:43.131Z,0.60
2024-02-19T06:46:13.037Z,0.70
2024-02-19T06:48:42.709Z,0.90
2024-02-19T06:51:09.385Z,1.03
2024-02-19T06:53:36.019Z,0.90
2024-02-19T06:56:02.687Z,0.90
2024-02-19T06:58:29.508Z,0.80
2024-02-19T07:00:56.338Z,0.83
2024-02-19T07:03:22.977Z,0.80
2024-02-19T07:05:49.701Z,1.30
2024-02-19T07:08:16.351Z,1.50
2024-02-19T07:10:43.482Z,1.70
2024-02-19T07:13:10.154Z,1.90
2024-02-19T07:15:36.758Z,2.10
2024-02-19T07:18:03.685Z,1.73
2024-02-19T07:20:30.283Z,2.07
2024-02-19T07:22:56.893Z,1.73
2024-02-19T07:25:23.608Z,2.00
2024-02-19T07:27:50.275Z,1.90
2024-02-19T07:30:17.087Z,1.87
2024-02-19T07:32:44.244Z,1.50
2024-02-19T07:35:11.118Z,1.70
2024-02-19T07:37:38.054Z,1.70
2024-02-19T07:40:05.776Z,1.70
2024-02-19T07:42:32.453Z,1.07
2024-02-19T07:44:59.037Z,1.30
2024-02-19T07:47:25.632Z,1.30
2024-02-19T07:49:52.341Z,1.33
2024-02-19T07:52:19.042Z,1.90
2024-02-19T07:54:45.734Z,2.20
2024-02-19T07:57:12.531Z,2.63
2024-02-19T07:59:39.442Z,2.03
2024-02-19T08:02:07.560Z,2.57
2024-02-19T08:04:34.388Z,1.90
2024-02-19T08:07:02.059Z,1.90
2024-02-19T08:09:28.922Z,1.70
2024-02-19T08:11:58.425Z,2.10
2024-02-19T08:14:28.183Z,1.30
2024-02-19T08:16:54.975Z,1.60
2024-02-19T08:19:21.970Z,1.30
2024-02-19T08:21:49.633Z,1.20
2024-02-19T08:24:16.304Z,1.50
2024-02-19T08:26:42.986Z,1.97
2024-02-19T08:29:09.673Z,2.80
2024-02-19T08:31:36.209Z,1.60
2024-02-19T08:34:02.940Z,1.90
2024-02-19T08:36:29.590Z,1.63
2024-02-19T08:38:56.978Z,1.50
2024-02-19T08:41:24.223Z,1.47
2024-02-19T08:43:50.929Z,1.27
2024-02-19T08:46:17.717Z,1.03
2024-02-19T08:48:44.914Z,1.50
2024-02-19T08:51:11.718Z,1.23
2024-02-19T08:53:38.255Z,1.20
2024-02-19T08:56:05.599Z,0.90
2024-02-19T08:58:32.559Z,0.97
2024-02-19T09:01:00.615Z,1.00
2024-02-19T09:03:28.395Z,0.97
2024-02-19T09:05:55.236Z,1.30
2024-02-19T09:08:21.953Z,1.57
2024-02-19T09:10:48.603Z,1.37
2024-02-19T09:13:15.163Z,1.53
2024-02-19T09:15:42.000Z,1.53
2024-02-19T09:18:08.810Z,1.53
2024-02-19T09:20:35.958Z,1.83
2024-02-19T09:23:02.819Z,1.40
2024-02-19T09:25:30.340Z,1.50
2024-02-19T09:27:57.277Z,1.87
2024-02-19T09:30:24.755Z,1.37
2024-02-19T09:32:51.518Z,1.50
2024-02-19T09:35:19.513Z,2.10
2024-02-19T09:37:49.229Z,1.50
2024-02-19T09:40:17.655Z,1.50
2024-02-19T09:42:48.271Z,0.97
2024-02-19T09:45:15.431Z,1.10
2024-02-19T09:47:45.789Z,1.77
2024-02-19T09:50:14.828Z,1.40
2024-02-19T09:52:45.012Z,1.13
2024-02-19T09:55:11.763Z,1.40
2024-02-19T09:57:38.393Z,1.50
2024-02-19T10:00:06.010Z,1.00
2024-02-19T10:02:35.431Z,1.70
2024-02-19T10:05:02.784Z,1.73
2024-02-19T10:07:31.932Z,1.33
2024-02-19T10:09:58.613Z,2.13
2024-02-19T10:12:25.206Z,1.77
2024-02-19T10:14:52.357Z,1.37
2024-02-19T10:17:24.788Z,1.60
2024-02-19T10:20:02.381Z,2.00
2024-02-19T10:22:28.986Z,1.47
2024-02-19T10:24:55.673Z,1.90
2024-02-19T10:27:22.449Z,2.00
2024-02-19T10:29:49.194Z,2.07
2024-02-19T10:32:15.789Z,5.73
2024-02-19T10:34:42.420Z,1.60
2024-02-19T10:37:09.069Z,3.23
2024-02-19T10:39:35.721Z,3.10
2024-02-19T10:42:03.026Z,2.30
2024-02-19T10:44:30.072Z,2.43
2024-02-19T10:46:57.008Z,2.07
2024-02-19T10:49:23.764Z,2.20
2024-02-19T10:51:51.996Z,2.50
2024-02-19T10:54:20.202Z,2.23
2024-02-19T10:56:47.247Z,2.70
2024-02-19T10:59:16.107Z,1.50
2024-02-19T11:01:46.271Z,1.33
2024-02-19T11:04:15.974Z,2.20
2024-02-19T11:06:57.009Z,1.60
2024-02-19T11:09:36.940Z,2.63
2024-02-19T11:12:06.461Z,2.07
2024-02-19T11:14:36.801Z,1.67
2024-02-19T11:17:04.283Z,1.70
2024-02-19T11:19:41.471Z,2.30
2024-02-19T11:22:10.653Z,1.40
2024-02-19T11:24:39.207Z,1.73
2024-02-19T11:27:07.115Z,1.90
2024-02-19T11:29:43.399Z,2.17
2024-02-19T11:32:20.213Z,1.57
2024-02-19T11:34:48.543Z,2.03
2024-02-19T11:37:15.509Z,1.60
2024-02-19T11:39:43.848Z,2.50
2024-02-19T11:42:13.083Z,2.13
2024-02-19T11:44:40.248Z,1.90
2024-02-19T11:47:08.912Z,1.80
2024-02-19T11:49:35.864Z,2.10
2024-02-19T11:52:11.250Z,1.53
2024-02-19T11:54:40.151Z,1.57
2024-02-19T11:57:10.377Z,2.00
2024-02-19T11:59:37.280Z,1.30
2024-02-19T12:02:05.868Z,1.70
2024-02-19T12:04:37.555Z,1.63
2024-02-19T12:07:04.726Z,1.83
2024-02-19T12:09:31.689Z,2.23
2024-02-19T12:11:59.132Z,2.23
2024-02-19T12:14:25.924Z,1.80
2024-02-19T12:16:55.485Z,2.20
2024-02-19T12:19:22.420Z,2.00
2024-02-19T12:21:50.504Z,1.50
2024-02-19T12:24:17.208Z,1.90
2024-02-19T12:26:45.668Z,2.30
2024-02-19T12:29:14.154Z,1.67
2024-02-19T12:31:41.293Z,1.60
2024-02-19T12:34:08.884Z,2.47
2024-02-19T12:36:36.628Z,2.00
2024-02-19T12:39:04.054Z,2.37
2024-02-19T12:41:30.896Z,2.50
2024-02-19T12:43:58.127Z,3.13
2024-02-19T12:46:26.042Z,2.30
2024-02-19T12:48:53.176Z,2.47
2024-02-19T12:51:20.724Z,1.93
2024-02-19T12:53:47.431Z,1.97
2024-02-19T12:56:14.007Z,2.67
2024-02-19T12:58:40.806Z,2.17
2024-02-19T13:01:20.292Z,1.60
2024-02-19T13:03:54.654Z,2.10
2024-02-19T13:06:21.642Z,2.93
2024-02-19T13:08:49.020Z,1.60
2024-02-19T13:11:15.976Z,2.60
2024-02-19T13:13:42.957Z,2.47
2024-02-19T13:16:09.702Z,2.47
2024-02-19T13:18:37.334Z,2.63
2024-02-19T13:21:04.879Z,3.10
2024-02-19T13:23:31.647Z,2.67
2024-02-19T13:25:58.275Z,2.63
2024-02-19T13:28:24.899Z,3.07
2024-02-19T13:30:51.619Z,3.63
2024-02-19T13:33:19.242Z,4.80
2024-02-19T13:35:46.016Z,3.40
2024-02-19T13:38:13.919Z,3.70
2024-02-19T13:40:40.696Z,3.13
2024-02-19T13:43:07.520Z,3.37
2024-02-19T13:46:04.549Z,3.70
2024-02-19T13:48:32.028Z,3.77
2024-02-19T13:50:59.447Z,4.17
2024-02-19T13:53:29.184Z,4.50
2024-02-19T13:55:58.018Z,4.30
2024-02-19T13:58:26.327Z,6.07
2024-02-19T14:00:59.219Z,4.80
2024-02-19T14:03:26.258Z,4.50
2024-02-19T14:05:53.270Z,4.20
2024-02-19T14:08:20.944Z,5.00
2024-02-19T14:10:52.804Z,5.77
2024-02-19T14:13:20.435Z,5.30
2024-02-19T14:15:47.435Z,6.20
2024-02-19T14:18:14.318Z,6.10
2024-02-19T14:20:40.971Z,6.30
2024-02-19T14:23:10.129Z,5.70
2024-02-19T14:25:37.086Z,5.00
2024-02-19T14:28:05.267Z,5.77
2024-02-19T14:30:32.459Z,5.90
2024-02-19T14:32:59.675Z,6.20
2024-02-19T14:35:26.598Z,6.07
2024-02-19T14:37:54.904Z,6.00
2024-02-19T14:40:21.709Z,5.80
2024-02-19T14:42:49.519Z,5.73
2024-02-19T14:45:16.964Z,5.57
2024-02-19T14:47:46.551Z,5.20
2024-02-19T14:50:14.538Z,4.90
2024-02-19T14:52:42.235Z,6.50
2024-02-19T14:55:10.962Z,4.37
2024-02-19T14:57:47.131Z,4.63
2024-02-19T15:00:21.332Z,4.50
2024-02-19T15:02:49.078Z,4.90
2024-02-19T15:05:16.069Z,5.50
2024-02-19T15:07:45.447Z,4.30
2024-02-19T15:10:15.911Z,4.67
2024-02-19T15:12:42.705Z,4.70
2024-02-19T15:15:10.135Z,4.83
2024-02-19T15:17:36.890Z,5.53
2024-02-19T15:20:04.082Z,4.47
2024-02-19T15:22:30.912Z,4.40
2024-02-19T15:24:57.645Z,4.67
2024-02-19T15:27:27.356Z,3.83
2024-02-19T15:29:58.135Z,4.90
2024-02-19T15:32:25.542Z,4.23
2024-02-19T15:34:54.225Z,4.37
2024-02-19T15:37:21.652Z,4.07
2024-02-19T15:39:48.420Z,4.60
2024-02-19T15:42:14.986Z,4.20
2024-02-19T15:44:44.021Z,4.00
2024-02-19T15:47:10.679Z,4.30
2024-02-19T15:49:37.384Z,5.97
2024-02-19T15:52:04.348Z,4.50
2024-02-19T15:54:30.969Z,4.20
2024-02-19T15:56:57.631Z,4.80
2024-02-19T15:59:24.307Z,5.30
2024-02-19T16:01:53.070Z,6.43
2024-02-19T16:04:20.658Z,6.93
2024-02-19T16:06:50.988Z,5.53
2024-02-19T16:09:17.642Z,5.43
2024-02-19T16:11:44.415Z,5.10
2024-02-19T16:14:11.087Z,7.30
2024-02-19T16:16:38.364Z,5.50
2024-02-19T16:19:05.262Z,4.97
2024-02-19T16:21:33.163Z,8.93
2024-02-19T16:23:59.751Z,6.23
2024-02-19T16:26:27.104Z,7.60
2024-02-19T16:28:54.552Z,6.77
2024-02-19T16:31:21.161Z,6.50
2024-02-19T16:33:48.367Z,6.50
2024-02-19T16:36:15.317Z,6.00
2024-02-19T16:38:44.079Z,5.67
2024-02-19T16:41:10.843Z,4.93
2024-02-19T16:43:37.652Z,4.80
2024-02-19T16:46:06.016Z,5.37
2024-02-19T16:48:40.206Z,4.83
2024-02-19T16:51:08.210Z,4.67
2024-02-19T16:53:35.450Z,4.50
2024-02-19T16:56:03.711Z,4.70
2024-02-19T16:58:33.413Z,4.23
2024-02-19T17:01:03.480Z,5.17
2024-02-19T17:03:30.467Z,4.93
2024-02-19T17:05:57.392Z,5.00
2024-02-19T17:08:26.982Z,5.50
2024-02-19T17:10:54.456Z,4.97
2024-02-19T17:13:21.187Z,4.90
2024-02-19T17:15:48.019Z,5.77
2024-02-19T17:18:18.656Z,6.40
2024-02-19T17:20:45.538Z,6.43
2024-02-19T17:23:15.333Z,6.10
2024-02-19T17:25:42.222Z,7.57
2024-02-19T17:28:09.238Z,6.47
2024-02-19T17:30:36.088Z,6.80
2024-02-19T17:33:02.814Z,6.17
2024-02-19T17:35:31.121Z,6.50
2024-02-19T17:37:58.291Z,6.60
2024-02-19T17:40:25.104Z,6.00
2024-02-19T17:42:52.128Z,7.10
2024-02-19T17:45:19.332Z,7.30
2024-02-19T17:47:49.319Z,6.70
2024-02-19T17:50:16.171Z,6.70
2024-02-19T17:52:45.983Z,6.13
2024-02-19T17:55:12.792Z,6.77
2024-02-19T17:57:40.400Z,6.87
2024-02-19T18:00:10.270Z,7.10
2024-02-19T18:02:40.111Z,8.03
2024-02-19T18:05:07.095Z,6.80
2024-02-19T18:07:33.775Z,7.53
2024-02-19T18:10:00.704Z,6.67
2024-02-19T18:12:27.668Z,6.53
2024-02-19T18:14:54.514Z,9.33
2024-02-19T18:17:21.152Z,7.20
2024-02-19T18:19:48.834Z,9.10
2024-02-19T18:22:15.531Z,8.17
2024-02-19T18:24:42.323Z,9.47
2024-02-19T18:27:09.491Z,7.20
2024-02-19T18:29:36.865Z,7.93
2024-02-19T18:32:03.669Z,7.90
2024-02-19T18:34:31.816Z,8.83
2024-02-19T18:37:00.184Z,8.13
2024-02-19T18:39:29.029Z,8.53
2024-02-19T18:41:57.730Z,8.90
2024-02-19T18:44:24.474Z,8.67
2024-02-19T18:46:51.088Z,7.90
2024-02-19T18:49:18.352Z,9.07
2024-02-19T18:51:47.324Z,8.33
2024-02-19T18:54:15.483Z,7.97
2024-02-19T18:56:42.323Z,9.63
2024-02-19T18:59:09.189Z,9.07
2024-02-19T19:01:36.301Z,9.17
2024-02-19T19:04:04.089Z,10.33
2024-02-19T19:06:31.376Z,8.70
2024-02-19T19:09:04.202Z,8.57
2024-02-19T19:11:30.909Z,8.47
2024-02-19T19:13:57.724Z,8.30
2024-02-19T19:16:24.537Z,8.30
2024-02-19T19:18:52.438Z,8.10
2024-02-19T19:21:20.146Z,7.67
2024-02-19T19:23:48.956Z,9.43
2024-02-19T19:26:15.656Z,8.13
2024-02-19T19:28:42.295Z,8.00
2024-02-19T19:31:09.075Z,7.33
2024-02-19T19:33:36.058Z,7.43
2024-02-19T19:36:03.063Z,7.43
2024-02-19T19:38:30.556Z,7.10
2024-02-19T19:40:57.997Z,7.80
2024-02-19T19:43:25.145Z,7.80
2024-02-19T19:45:54.240Z,6.63
2024-02-19T19:48:28.103Z,7.33
2024-02-19T19:50:56.356Z,7.30
2024-02-19T19:53:24.070Z,6.80
2024-02-19T19:55:55.017Z,7.67
2024-02-19T19:58:31.005Z,7.07
2024-02-19T20:00:59.995Z,7.27
2024-02-19T20:03:26.958Z,8.13
2024-02-19T20:05:54.280Z,7.40
2024-02-19T20:08:21.315Z,7.23
2024-02-19T20:10:48.439Z,7.40
2024-02-19T20:13:15.554Z,8.10
2024-02-19T20:15:42.232Z,8.40
2024-02-19T20:18:10.074Z,6.97
2024-02-19T20:20:36.939Z,8.50
2024-02-19T20:23:03.797Z,7.40
2024-02-19T20:25:31.783Z,8.00
2024-02-19T20:28:05.407Z,7.23
2024-02-19T20:30:32.057Z,7.67
2024-02-19T20:32:58.664Z,7.47
2024-02-19T20:35:27.023Z,6.97
2024-02-19T20:37:53.801Z,6.60
2024-02-19T20:40:20.514Z,7.40
2024-02-19T20:42:53.220Z,6.97
2024-02-19T20:45:20.784Z,6.50
2024-02-19T20:47:47.857Z,6.80
2024-02-19T20:50:15.402Z,6.17
2024-02-19T20:52:44.779Z,6.20
2024-02-19T20:55:12.781Z,5.97
2024-02-19T20:57:39.374Z,6.33
2024-02-19T21:00:11.156Z,6.50
2024-02-19T21:02:40.868Z,7.13
2024-02-19T21:05:14.658Z,7.43
2024-02-19T21:07:44.923Z,6.60
2024-02-19T21:10:13.984Z,7.27
2024-02-19T21:12:43.874Z,7.10
2024-02-19T21:15:16.127Z,5.47
2024-02-19T21:17:42.810Z,5.97
2024-02-19T21:20:11.753Z,6.13
2024-02-19T21:22:39.270Z,6.80
2024-02-19T21:25:06.619Z,6.73
2024-02-19T21:27:33.230Z,5.80
2024-02-19T21:29:59.813Z,6.50
2024-02-19T21:32:26.868Z,6.67
2024-02-19T21:34:54.027Z,5.90
2024-02-19T21:37:21.093Z,6.23
2024-02-19T21:39:47.787Z,5.50
2024-02-19T21:42:20.573Z,6.10
2024-02-19T21:44:49.967Z,6.17
2024-02-19T21:47:16.574Z,4.97
2024-02-19T21:49:43.553Z,5.80
2024-02-19T21:52:10.304Z,5.80
2024-02-19T21:54:36.905Z,4.97
2024-02-19T21:57:05.558Z,6.13
2024-02-19T21:59:32.271Z,5.50
2024-02-19T22:01:59.466Z,5.50
2024-02-19T22:04:26.331Z,5.03
2024-02-19T22:06:53.079Z,4.47
2024-02-19T22:09:19.746Z,6.27
2024-02-19T22:11:46.798Z,5.53
2024-02-19T22:14:15.323Z,5.07
2024-02-19T22:16:41.962Z,5.50
2024-02-19T22:19:08.751Z,5.03
2024-02-19T22:21:35.752Z,5.33
2024-02-19T22:24:02.375Z,5.23
2024-02-19T22:26:28.968Z,5.80
2024-02-19T22:28:55.538Z,4.90
2024-02-19T22:31:22.204Z,4.80
2024-02-19T22:33:49.244Z,4.23
2024-02-19T22:36:15.951Z,3.97
2024-02-19T22:38:42.491Z,4.27
2024-02-19T22:41:09.392Z,2.63
2024-02-19T22:43:35.983Z,2.90
2024-02-19T22:46:02.653Z,3.70
2024-02-19T22:48:29.499Z,2.70
2024-02-19T22:50:56.107Z,2.60
2024-02-19T22:53:22.668Z,2.80
2024-02-19T22:55:49.220Z,2.80
2024-02-19T22:58:28.980Z,3.33
2024-02-19T23:00:59.760Z,2.23
2024-02-19T23:03:26.521Z,2.20
2024-02-19T23:05:53.292Z,1.80
2024-02-19T23:08:20.291Z,1.97
2024-02-19T23:10:46.958Z,2.07
2024-02-19T23:13:14.054Z,2.37
2024-02-19T23:15:42.458Z,2.17
2024-02-19T23:18:09.151Z,1.80
2024-02-19T23:20:36.204Z,1.20
2024-02-19T23:23:03.398Z,1.33
2024-02-19T23:25:30.003Z,1.47
2024-02-19T23:27:58.527Z,1.47
2024-02-19T23:30:25.828Z,1.30
2024-02-19T23:32:52.548Z,1.50
2024-02-19T23:35:19.236Z,1.20
2024-02-19T23:37:46.808Z,1.70
2024-02-19T23:40:17.826Z,1.23
2024-02-19T23:42:45.753Z,0.90
2024-02-19T23:45:12.695Z,1.00
2024-02-19T23:47:40.510Z,0.93
2024-02-19T23:50:09.261Z,1.07
2024-02-19T23:52:36.553Z,1.10
2024-02-19T23:55:03.976Z,1.20
2024-02-19T23:57:30.611Z,0.90
2024-02-19T23:59:57.197Z,1.33
